sensor_id;sensor_type;location;lat;lon;timestamp;P1;durP1;ratioP1;P2;durP2;ratioP2
42904;SDS011;28550;51.228;4.528;2023-09-19T00:00:36;8.63;;;3.53;;
42904;SDS011;28550;51.228;4.528;2023-09-19T00:03:04;19.35;;;4.43;;
42904;SDS011;28550;51.228;4.528;2023-09-19T00:05:34;14.52;;;3.97;;
42904;SDS011;28550;51.228;4.528;2023-09-19T00:08:00;11.25;;;3.55;;
42904;SDS011;28550;51.228;4.528;2023-09-19T00:10:29;18.70;;;4.32;;
42904;SDS011;28550;51.228;4.528;2023-09-19T00:13:00;11.82;;;3.17;;
42904;SDS011;28550;51.228;4.528;2023-09-19T00:15:30;17.40;;;3.45;;
42904;SDS011;28550;51.228;4.528;2023-09-19T00:18:01;12.68;;;3.88;;
42904;SDS011;28550;51.228;4.528;2023-09-19T00:20:27;13.07;;;3.92;;
42904;SDS011;28550;51.228;4.528;2023-09-19T00:22:56;12.85;;;2.80;;
42904;SDS011;28550;51.228;4.528;2023-09-19T00:25:30;11.65;;;3.30;;
42904;SDS011;28550;51.228;4.528;2023-09-19T00:28:00;11.27;;;3.05;;
42904;SDS011;28550;51.228;4.528;2023-09-19T00:30:26;12.77;;;3.28;;
42904;SDS011;28550;51.228;4.528;2023-09-19T00:32:52;13.77;;;2.70;;
42904;SDS011;28550;51.228;4.528;2023-09-19T00:35:22;9.63;;;2.88;;
42904;SDS011;28550;51.228;4.528;2023-09-19T00:38:19;10.48;;;3.15;;
42904;SDS011;28550;51.228;4.528;2023-09-19T00:40:48;14.48;;;3.70;;
42904;SDS011;28550;51.228;4.528;2023-09-19T00:43:16;8.65;;;2.30;;
42904;SDS011;28550;51.228;4.528;2023-09-19T00:45:44;10.20;;;3.60;;
42904;SDS011;28550;51.228;4.528;2023-09-19T00:48:12;7.75;;;3.08;;
42904;SDS011;28550;51.228;4.528;2023-09-19T00:50:39;10.00;;;2.72;;
42904;SDS011;28550;51.228;4.528;2023-09-19T00:53:08;13.98;;;2.75;;
42904;SDS011;28550;51.228;4.528;2023-09-19T00:55:35;11.70;;;2.85;;
42904;SDS011;28550;51.228;4.528;2023-09-19T00:58:05;10.75;;;3.33;;
42904;SDS011;28550;51.228;4.528;2023-09-19T01:00:34;7.35;;;3.08;;
42904;SDS011;28550;51.228;4.528;2023-09-19T01:03:00;11.23;;;3.70;;
42904;SDS011;28550;51.228;4.528;2023-09-19T01:05:26;11.75;;;2.25;;
42904;SDS011;28550;51.228;4.528;2023-09-19T01:07:53;6.60;;;2.60;;
42904;SDS011;28550;51.228;4.528;2023-09-19T01:10:19;12.30;;;2.92;;
42904;SDS011;28550;51.228;4.528;2023-09-19T01:21:05;15.05;;;3.45;;
42904;SDS011;28550;51.228;4.528;2023-09-19T01:27:34;6.70;;;2.35;;
42904;SDS011;28550;51.228;4.528;2023-09-19T01:30:14;12.93;;;3.33;;
42904;SDS011;28550;51.228;4.528;2023-09-19T01:32:42;12.45;;;3.83;;
42904;SDS011;28550;51.228;4.528;2023-09-19T01:35:09;10.70;;;2.58;;
42904;SDS011;28550;51.228;4.528;2023-09-19T01:37:37;7.85;;;2.08;;
42904;SDS011;28550;51.228;4.528;2023-09-19T01:40:07;13.50;;;3.05;;
42904;SDS011;28550;51.228;4.528;2023-09-19T01:48:12;7.38;;;2.88;;
42904;SDS011;28550;51.228;4.528;2023-09-19T01:50:46;13.18;;;2.20;;
42904;SDS011;28550;51.228;4.528;2023-09-19T01:53:33;6.47;;;2.38;;
42904;SDS011;28550;51.228;4.528;2023-09-19T01:56:28;9.73;;;2.72;;
42904;SDS011;28550;51.228;4.528;2023-09-19T01:58:59;14.27;;;2.90;;
42904;SDS011;28550;51.228;4.528;2023-09-19T02:01:30;8.50;;;3.17;;
42904;SDS011;28550;51.228;4.528;2023-09-19T02:03:56;8.15;;;3.42;;
42904;SDS011;28550;51.228;4.528;2023-09-19T02:06:23;5.75;;;2.28;;
42904;SDS011;28550;51.228;4.528;2023-09-19T02:08:50;15.02;;;3.33;;
42904;SDS011;28550;51.228;4.528;2023-09-19T02:11:16;9.25;;;3.35;;
42904;SDS011;28550;51.228;4.528;2023-09-19T02:13:41;12.73;;;3.10;;
42904;SDS011;28550;51.228;4.528;2023-09-19T02:16:07;11.18;;;3.55;;
42904;SDS011;28550;51.228;4.528;2023-09-19T02:18:35;14.10;;;3.60;;
42904;SDS011;28550;51.228;4.528;2023-09-19T02:21:02;9.75;;;2.88;;
42904;SDS011;28550;51.228;4.528;2023-09-19T02:23:29;13.77;;;2.83;;
42904;SDS011;28550;51.228;4.528;2023-09-19T02:25:55;9.57;;;3.22;;
42904;SDS011;28550;51.228;4.528;2023-09-19T02:28:25;10.52;;;3.08;;
42904;SDS011;28550;51.228;4.528;2023-09-19T02:30:55;16.60;;;3.63;;
42904;SDS011;28550;51.228;4.528;2023-09-19T02:33:21;9.90;;;2.45;;
42904;SDS011;28550;51.228;4.528;2023-09-19T02:35:47;9.40;;;2.60;;
42904;SDS011;28550;51.228;4.528;2023-09-19T02:38:13;16.90;;;3.00;;
42904;SDS011;28550;51.228;4.528;2023-09-19T02:40:43;12.07;;;3.10;;
42904;SDS011;28550;51.228;4.528;2023-09-19T02:43:24;15.45;;;3.42;;
42904;SDS011;28550;51.228;4.528;2023-09-19T02:45:50;13.15;;;4.07;;
42904;SDS011;28550;51.228;4.528;2023-09-19T02:48:18;11.27;;;3.28;;
42904;SDS011;28550;51.228;4.528;2023-09-19T02:50:44;12.32;;;3.72;;
42904;SDS011;28550;51.228;4.528;2023-09-19T02:53:10;14.00;;;3.10;;
42904;SDS011;28550;51.228;4.528;2023-09-19T02:55:40;10.60;;;2.50;;
42904;SDS011;28550;51.228;4.528;2023-09-19T02:58:07;11.60;;;3.40;;
42904;SDS011;28550;51.228;4.528;2023-09-19T03:00:35;11.68;;;3.22;;
42904;SDS011;28550;51.228;4.528;2023-09-19T03:03:01;9.18;;;3.05;;
42904;SDS011;28550;51.228;4.528;2023-09-19T03:05:28;9.20;;;2.70;;
42904;SDS011;28550;51.228;4.528;2023-09-19T03:07:55;11.45;;;3.90;;
42904;SDS011;28550;51.228;4.528;2023-09-19T03:10:22;18.23;;;4.50;;
42904;SDS011;28550;51.228;4.528;2023-09-19T03:12:49;11.75;;;3.10;;
42904;SDS011;28550;51.228;4.528;2023-09-19T03:15:15;10.32;;;3.22;;
42904;SDS011;28550;51.228;4.528;2023-09-19T03:17:46;11.88;;;3.58;;
42904;SDS011;28550;51.228;4.528;2023-09-19T03:20:13;14.98;;;3.03;;
42904;SDS011;28550;51.228;4.528;2023-09-19T03:22:45;14.63;;;2.83;;
42904;SDS011;28550;51.228;4.528;2023-09-19T03:25:11;11.38;;;3.92;;
42904;SDS011;28550;51.228;4.528;2023-09-19T03:27:37;16.38;;;4.13;;
42904;SDS011;28550;51.228;4.528;2023-09-19T03:30:04;11.27;;;3.92;;
42904;SDS011;28550;51.228;4.528;2023-09-19T03:32:34;15.25;;;4.07;;
42904;SDS011;28550;51.228;4.528;2023-09-19T03:35:08;16.98;;;3.97;;
42904;SDS011;28550;51.228;4.528;2023-09-19T03:37:40;16.80;;;3.40;;
42904;SDS011;28550;51.228;4.528;2023-09-19T03:40:07;10.60;;;3.90;;
42904;SDS011;28550;51.228;4.528;2023-09-19T03:42:40;15.35;;;3.33;;
42904;SDS011;28550;51.228;4.528;2023-09-19T03:45:07;13.68;;;3.38;;
42904;SDS011;28550;51.228;4.528;2023-09-19T03:47:37;12.43;;;3.00;;
42904;SDS011;28550;51.228;4.528;2023-09-19T03:50:06;8.07;;;3.55;;
42904;SDS011;28550;51.228;4.528;2023-09-19T03:52:33;12.35;;;3.45;;
42904;SDS011;28550;51.228;4.528;2023-09-19T03:55:05;13.82;;;3.08;;
42904;SDS011;28550;51.228;4.528;2023-09-19T03:57:31;13.73;;;3.85;;
42904;SDS011;28550;51.228;4.528;2023-09-19T03:59:57;11.52;;;2.97;;
42904;SDS011;28550;51.228;4.528;2023-09-19T04:02:22;16.65;;;3.55;;
42904;SDS011;28550;51.228;4.528;2023-09-19T04:04:49;17.92;;;4.10;;
42904;SDS011;28550;51.228;4.528;2023-09-19T04:07:16;18.90;;;3.10;;
42904;SDS011;28550;51.228;4.528;2023-09-19T04:09:44;13.75;;;3.08;;
42904;SDS011;28550;51.228;4.528;2023-09-19T04:14:41;15.63;;;3.63;;
42904;SDS011;28550;51.228;4.528;2023-09-19T04:17:20;15.80;;;3.60;;
42904;SDS011;28550;51.228;4.528;2023-09-19T04:19:45;10.93;;;3.80;;
42904;SDS011;28550;51.228;4.528;2023-09-19T04:22:11;6.80;;;2.83;;
42904;SDS011;28550;51.228;4.528;2023-09-19T04:24:38;12.35;;;3.05;;
42904;SDS011;28550;51.228;4.528;2023-09-19T04:27:04;15.65;;;3.30;;
42904;SDS011;28550;51.228;4.528;2023-09-19T04:29:32;10.73;;;3.10;;
42904;SDS011;28550;51.228;4.528;2023-09-19T04:31:58;15.13;;;3.10;;
42904;SDS011;28550;51.228;4.528;2023-09-19T04:34:24;10.73;;;2.92;;
42904;SDS011;28550;51.228;4.528;2023-09-19T04:36:50;11.32;;;2.90;;
42904;SDS011;28550;51.228;4.528;2023-09-19T04:39:16;15.15;;;3.90;;
42904;SDS011;28550;51.228;4.528;2023-09-19T04:41:42;13.55;;;3.35;;
42904;SDS011;28550;51.228;4.528;2023-09-19T04:44:10;13.85;;;3.47;;
42904;SDS011;28550;51.228;4.528;2023-09-19T04:46:35;13.13;;;3.00;;
42904;SDS011;28550;51.228;4.528;2023-09-19T04:49:01;9.30;;;3.78;;
42904;SDS011;28550;51.228;4.528;2023-09-19T04:51:29;15.73;;;4.00;;
42904;SDS011;28550;51.228;4.528;2023-09-19T04:53:59;14.40;;;3.67;;
42904;SDS011;28550;51.228;4.528;2023-09-19T04:56:28;16.17;;;3.25;;
42904;SDS011;28550;51.228;4.528;2023-09-19T04:58:54;16.33;;;2.97;;
42904;SDS011;28550;51.228;4.528;2023-09-19T05:01:19;14.65;;;4.53;;
42904;SDS011;28550;51.228;4.528;2023-09-19T05:03:51;10.60;;;3.35;;
42904;SDS011;28550;51.228;4.528;2023-09-19T05:06:19;18.38;;;4.43;;
42904;SDS011;28550;51.228;4.528;2023-09-19T05:08:54;23.52;;;3.47;;
42904;SDS011;28550;51.228;4.528;2023-09-19T05:11:20;11.68;;;3.20;;
42904;SDS011;28550;51.228;4.528;2023-09-19T05:13:48;14.38;;;3.80;;
42904;SDS011;28550;51.228;4.528;2023-09-19T05:16:18;15.75;;;3.42;;
42904;SDS011;28550;51.228;4.528;2023-09-19T05:18:44;21.42;;;4.38;;
42904;SDS011;28550;51.228;4.528;2023-09-19T05:21:10;17.80;;;3.97;;
42904;SDS011;28550;51.228;4.528;2023-09-19T05:23:39;21.20;;;4.30;;
42904;SDS011;28550;51.228;4.528;2023-09-19T05:26:06;8.27;;;2.72;;
42904;SDS011;28550;51.228;4.528;2023-09-19T05:28:35;16.92;;;3.97;;
42904;SDS011;28550;51.228;4.528;2023-09-19T05:31:02;16.83;;;3.33;;
42904;SDS011;28550;51.228;4.528;2023-09-19T05:33:28;10.80;;;3.13;;
42904;SDS011;28550;51.228;4.528;2023-09-19T05:35:57;13.43;;;4.65;;
42904;SDS011;28550;51.228;4.528;2023-09-19T05:38:22;19.08;;;4.80;;
42904;SDS011;28550;51.228;4.528;2023-09-19T05:40:51;13.13;;;3.88;;
42904;SDS011;28550;51.228;4.528;2023-09-19T05:43:26;17.38;;;4.05;;
42904;SDS011;28550;51.228;4.528;2023-09-19T05:45:52;17.48;;;3.67;;
42904;SDS011;28550;51.228;4.528;2023-09-19T05:48:29;15.82;;;4.10;;
42904;SDS011;28550;51.228;4.528;2023-09-19T05:51:00;17.60;;;3.38;;
42904;SDS011;28550;51.228;4.528;2023-09-19T05:53:43;11.73;;;3.58;;
42904;SDS011;28550;51.228;4.528;2023-09-19T05:56:16;13.43;;;3.50;;
42904;SDS011;28550;51.228;4.528;2023-09-19T05:59:08;12.77;;;3.88;;
42904;SDS011;28550;51.228;4.528;2023-09-19T06:01:34;9.48;;;3.30;;
42904;SDS011;28550;51.228;4.528;2023-09-19T06:03:59;11.10;;;3.28;;
42904;SDS011;28550;51.228;4.528;2023-09-19T06:06:25;14.88;;;3.78;;
42904;SDS011;28550;51.228;4.528;2023-09-19T06:08:52;16.33;;;3.67;;
42904;SDS011;28550;51.228;4.528;2023-09-19T06:11:31;20.58;;;3.65;;
42904;SDS011;28550;51.228;4.528;2023-09-19T06:14:00;21.40;;;3.47;;
42904;SDS011;28550;51.228;4.528;2023-09-19T06:16:27;10.75;;;3.70;;
42904;SDS011;28550;51.228;4.528;2023-09-19T06:18:57;16.92;;;4.03;;
42904;SDS011;28550;51.228;4.528;2023-09-19T06:21:45;17.17;;;3.97;;
42904;SDS011;28550;51.228;4.528;2023-09-19T06:24:32;12.77;;;4.60;;
42904;SDS011;28550;51.228;4.528;2023-09-19T06:26:59;12.40;;;3.58;;
42904;SDS011;28550;51.228;4.528;2023-09-19T06:29:26;13.80;;;4.00;;
42904;SDS011;28550;51.228;4.528;2023-09-19T06:31:59;14.40;;;3.85;;
42904;SDS011;28550;51.228;4.528;2023-09-19T06:40:44;9.65;;;3.50;;
42904;SDS011;28550;51.228;4.528;2023-09-19T06:50:37;18.75;;;4.03;;
42904;SDS011;28550;51.228;4.528;2023-09-19T06:53:04;7.85;;;3.17;;
42904;SDS011;28550;51.228;4.528;2023-09-19T06:55:30;14.40;;;3.95;;
42904;SDS011;28550;51.228;4.528;2023-09-19T06:57:59;12.15;;;2.97;;
42904;SDS011;28550;51.228;4.528;2023-09-19T07:00:31;10.00;;;3.22;;
42904;SDS011;28550;51.228;4.528;2023-09-19T07:03:01;11.02;;;3.78;;
42904;SDS011;28550;51.228;4.528;2023-09-19T07:05:36;14.13;;;2.97;;
42904;SDS011;28550;51.228;4.528;2023-09-19T07:08:07;20.58;;;3.17;;
42904;SDS011;28550;51.228;4.528;2023-09-19T07:10:49;11.10;;;2.35;;
42904;SDS011;28550;51.228;4.528;2023-09-19T07:13:15;10.38;;;3.03;;
42904;SDS011;28550;51.228;4.528;2023-09-19T07:15:44;13.18;;;3.00;;
42904;SDS011;28550;51.228;4.528;2023-09-19T07:18:15;14.50;;;3.65;;
42904;SDS011;28550;51.228;4.528;2023-09-19T07:20:41;17.85;;;3.28;;
42904;SDS011;28550;51.228;4.528;2023-09-19T07:23:14;9.88;;;2.60;;
42904;SDS011;28550;51.228;4.528;2023-09-19T07:25:41;12.68;;;3.58;;
42904;SDS011;28550;51.228;4.528;2023-09-19T07:28:07;12.50;;;3.22;;
42904;SDS011;28550;51.228;4.528;2023-09-19T07:30:35;10.05;;;3.13;;
42904;SDS011;28550;51.228;4.528;2023-09-19T07:33:03;14.13;;;3.10;;
42904;SDS011;28550;51.228;4.528;2023-09-19T07:35:31;12.43;;;3.33;;
42904;SDS011;28550;51.228;4.528;2023-09-19T07:38:00;10.73;;;2.75;;
42904;SDS011;28550;51.228;4.528;2023-09-19T07:40:28;16.77;;;3.92;;
42904;SDS011;28550;51.228;4.528;2023-09-19T07:42:57;11.95;;;3.22;;
42904;SDS011;28550;51.228;4.528;2023-09-19T07:45:26;10.77;;;2.80;;
42904;SDS011;28550;51.228;4.528;2023-09-19T07:47:58;14.60;;;4.00;;
42904;SDS011;28550;51.228;4.528;2023-09-19T07:50:33;11.30;;;3.03;;
42904;SDS011;28550;51.228;4.528;2023-09-19T07:53:02;13.02;;;3.03;;
42904;SDS011;28550;51.228;4.528;2023-09-19T07:55:30;7.03;;;2.97;;
42904;SDS011;28550;51.228;4.528;2023-09-19T07:57:55;9.48;;;2.80;;
42904;SDS011;28550;51.228;4.528;2023-09-19T08:00:22;13.60;;;3.53;;
42904;SDS011;28550;51.228;4.528;2023-09-19T08:02:48;15.30;;;3.22;;
42904;SDS011;28550;51.228;4.528;2023-09-19T08:05:13;11.00;;;3.05;;
42904;SDS011;28550;51.228;4.528;2023-09-19T08:07:43;7.22;;;2.85;;
42904;SDS011;28550;51.228;4.528;2023-09-19T08:10:16;8.25;;;2.63;;
42904;SDS011;28550;51.228;4.528;2023-09-19T08:12:43;9.40;;;2.78;;
42904;SDS011;28550;51.228;4.528;2023-09-19T08:17:39;14.38;;;3.05;;
42904;SDS011;28550;51.228;4.528;2023-09-19T08:20:06;9.88;;;3.17;;
42904;SDS011;28550;51.228;4.528;2023-09-19T08:22:52;6.68;;;2.60;;
42904;SDS011;28550;51.228;4.528;2023-09-19T08:25:19;12.80;;;3.13;;
42904;SDS011;28550;51.228;4.528;2023-09-19T08:27:46;13.07;;;3.08;;
42904;SDS011;28550;51.228;4.528;2023-09-19T08:30:14;14.23;;;2.88;;
42904;SDS011;28550;51.228;4.528;2023-09-19T08:32:41;11.50;;;3.05;;
42904;SDS011;28550;51.228;4.528;2023-09-19T08:35:11;20.42;;;3.38;;
42904;SDS011;28550;51.228;4.528;2023-09-19T08:37:37;10.07;;;2.80;;
42904;SDS011;28550;51.228;4.528;2023-09-19T08:40:02;10.25;;;3.60;;
42904;SDS011;28550;51.228;4.528;2023-09-19T08:42:28;11.85;;;2.88;;
42904;SDS011;28550;51.228;4.528;2023-09-19T08:44:55;11.48;;;3.40;;
42904;SDS011;28550;51.228;4.528;2023-09-19T08:47:33;9.85;;;2.72;;
42904;SDS011;28550;51.228;4.528;2023-09-19T08:50:41;13.60;;;4.28;;
42904;SDS011;28550;51.228;4.528;2023-09-19T08:53:01;11.70;;;3.35;;
42904;SDS011;28550;51.228;4.528;2023-09-19T08:55:35;10.55;;;2.90;;
42904;SDS011;28550;51.228;4.528;2023-09-19T08:58:08;11.35;;;2.65;;
42904;SDS011;28550;51.228;4.528;2023-09-19T09:00:35;6.43;;;2.42;;
42904;SDS011;28550;51.228;4.528;2023-09-19T09:03:02;11.73;;;3.25;;
42904;SDS011;28550;51.228;4.528;2023-09-19T09:05:31;14.55;;;3.30;;
42904;SDS011;28550;51.228;4.528;2023-09-19T09:07:59;10.57;;;3.17;;
42904;SDS011;28550;51.228;4.528;2023-09-19T09:10:27;13.80;;;2.90;;
42904;SDS011;28550;51.228;4.528;2023-09-19T09:12:53;9.98;;;3.20;;
42904;SDS011;28550;51.228;4.528;2023-09-19T09:15:23;13.32;;;3.53;;
42904;SDS011;28550;51.228;4.528;2023-09-19T09:17:49;9.02;;;2.80;;
42904;SDS011;28550;51.228;4.528;2023-09-19T09:20:19;10.35;;;3.08;;
42904;SDS011;28550;51.228;4.528;2023-09-19T09:22:51;10.10;;;3.63;;
42904;SDS011;28550;51.228;4.528;2023-09-19T09:25:20;6.88;;;2.78;;
42904;SDS011;28550;51.228;4.528;2023-09-19T09:28:00;13.05;;;2.65;;
42904;SDS011;28550;51.228;4.528;2023-09-19T09:30:33;10.27;;;2.80;;
42904;SDS011;28550;51.228;4.528;2023-09-19T09:33:09;8.50;;;3.25;;
42904;SDS011;28550;51.228;4.528;2023-09-19T09:35:46;8.80;;;3.35;;
42904;SDS011;28550;51.228;4.528;2023-09-19T09:38:17;12.55;;;3.22;;
42904;SDS011;28550;51.228;4.528;2023-09-19T09:40:51;9.05;;;3.17;;
42904;SDS011;28550;51.228;4.528;2023-09-19T09:43:27;9.00;;;2.37;;
42904;SDS011;28550;51.228;4.528;2023-09-19T09:46:14;7.38;;;2.35;;
42904;SDS011;28550;51.228;4.528;2023-09-19T09:48:57;8.50;;;2.40;;
42904;SDS011;28550;51.228;4.528;2023-09-19T09:51:43;11.25;;;2.70;;
42904;SDS011;28550;51.228;4.528;2023-09-19T09:54:25;6.78;;;2.05;;
42904;SDS011;28550;51.228;4.528;2023-09-19T09:57:03;8.23;;;2.15;;
42904;SDS011;28550;51.228;4.528;2023-09-19T10:02:30;5.80;;;1.95;;
42904;SDS011;28550;51.228;4.528;2023-09-19T10:05:15;11.45;;;2.83;;
42904;SDS011;28550;51.228;4.528;2023-09-19T10:08:09;6.15;;;2.10;;
42904;SDS011;28550;51.228;4.528;2023-09-19T10:10:38;7.55;;;2.10;;
42904;SDS011;28550;51.228;4.528;2023-09-19T10:13:11;5.65;;;2.20;;
42904;SDS011;28550;51.228;4.528;2023-09-19T10:15:44;6.28;;;2.58;;
42904;SDS011;28550;51.228;4.528;2023-09-19T10:18:22;5.77;;;1.73;;
42904;SDS011;28550;51.228;4.528;2023-09-19T10:20:50;7.32;;;1.95;;
42904;SDS011;28550;51.228;4.528;2023-09-19T10:23:17;9.45;;;1.95;;
42904;SDS011;28550;51.228;4.528;2023-09-19T10:25:51;4.85;;;1.73;;
42904;SDS011;28550;51.228;4.528;2023-09-19T10:28:18;6.22;;;1.60;;
42904;SDS011;28550;51.228;4.528;2023-09-19T10:30:49;11.45;;;2.75;;
42904;SDS011;28550;51.228;4.528;2023-09-19T10:33:17;6.25;;;1.85;;
42904;SDS011;28550;51.228;4.528;2023-09-19T10:35:48;4.85;;;1.75;;
42904;SDS011;28550;51.228;4.528;2023-09-19T10:38:19;8.32;;;1.92;;
42904;SDS011;28550;51.228;4.528;2023-09-19T10:40:51;7.97;;;1.88;;
42904;SDS011;28550;51.228;4.528;2023-09-19T10:43:19;5.28;;;1.75;;
42904;SDS011;28550;51.228;4.528;2023-09-19T10:45:48;7.97;;;1.80;;
42904;SDS011;28550;51.228;4.528;2023-09-19T10:48:17;6.60;;;1.55;;
42904;SDS011;28550;51.228;4.528;2023-09-19T10:51:05;7.43;;;2.17;;
42904;SDS011;28550;51.228;4.528;2023-09-19T10:53:45;4.53;;;1.48;;
42904;SDS011;28550;51.228;4.528;2023-09-19T10:59:16;6.75;;;2.05;;
42904;SDS011;28550;51.228;4.528;2023-09-19T11:04:26;4.70;;;1.65;;
42904;SDS011;28550;51.228;4.528;2023-09-19T11:09:56;5.18;;;1.25;;
42904;SDS011;28550;51.228;4.528;2023-09-19T11:15:06;5.50;;;1.77;;
42904;SDS011;28550;51.228;4.528;2023-09-19T11:17:39;6.15;;;1.10;;
42904;SDS011;28550;51.228;4.528;2023-09-19T11:41:55;7.68;;;1.40;;
42904;SDS011;28550;51.228;4.528;2023-09-19T11:49:16;3.97;;;1.20;;
42904;SDS011;28550;51.228;4.528;2023-09-19T11:51:48;3.13;;;1.15;;
42904;SDS011;28550;51.228;4.528;2023-09-19T11:54:20;5.90;;;1.10;;
42904;SDS011;28550;51.228;4.528;2023-09-19T11:56:53;3.97;;;1.55;;
42904;SDS011;28550;51.228;4.528;2023-09-19T11:59:22;7.60;;;1.38;;
42904;SDS011;28550;51.228;4.528;2023-09-19T12:01:53;4.68;;;1.30;;
42904;SDS011;28550;51.228;4.528;2023-09-19T12:04:33;2.75;;;0.65;;
42904;SDS011;28550;51.228;4.528;2023-09-19T12:09:48;6.93;;;1.10;;
42904;SDS011;28550;51.228;4.528;2023-09-19T12:12:33;6.18;;;1.55;;
42904;SDS011;28550;51.228;4.528;2023-09-19T12:14:59;9.10;;;1.88;;
42904;SDS011;28550;51.228;4.528;2023-09-19T12:17:38;4.68;;;1.20;;
42904;SDS011;28550;51.228;4.528;2023-09-19T12:20:06;6.40;;;1.45;;
42904;SDS011;28550;51.228;4.528;2023-09-19T12:22:45;4.32;;;1.02;;
42904;SDS011;28550;51.228;4.528;2023-09-19T12:25:15;6.82;;;1.40;;
42904;SDS011;28550;51.228;4.528;2023-09-19T12:27:49;8.77;;;1.38;;
42904;SDS011;28550;51.228;4.528;2023-09-19T12:30:18;5.60;;;1.25;;
42904;SDS011;28550;51.228;4.528;2023-09-19T12:32:47;4.20;;;1.38;;
42904;SDS011;28550;51.228;4.528;2023-09-19T12:35:27;5.80;;;1.27;;
42904;SDS011;28550;51.228;4.528;2023-09-19T12:37:53;3.33;;;1.50;;
42904;SDS011;28550;51.228;4.528;2023-09-19T12:40:20;6.72;;;1.52;;
42904;SDS011;28550;51.228;4.528;2023-09-19T12:42:53;3.72;;;1.17;;
42904;SDS011;28550;51.228;4.528;2023-09-19T12:45:32;7.35;;;1.38;;
42904;SDS011;28550;51.228;4.528;2023-09-19T12:51:07;2.67;;;1.10;;
42904;SDS011;28550;51.228;4.528;2023-09-19T12:53:38;4.85;;;1.15;;
42904;SDS011;28550;51.228;4.528;2023-09-19T12:56:09;4.25;;;1.13;;
42904;SDS011;28550;51.228;4.528;2023-09-19T12:58:55;3.95;;;1.50;;
42904;SDS011;28550;51.228;4.528;2023-09-19T13:01:25;5.90;;;1.50;;
42904;SDS011;28550;51.228;4.528;2023-09-19T13:06:43;6.60;;;1.40;;
42904;SDS011;28550;51.228;4.528;2023-09-19T13:09:12;6.55;;;1.25;;
42904;SDS011;28550;51.228;4.528;2023-09-19T13:11:39;7.03;;;1.65;;
42904;SDS011;28550;51.228;4.528;2023-09-19T13:14:16;4.25;;;1.25;;
42904;SDS011;28550;51.228;4.528;2023-09-19T13:16:59;7.18;;;1.90;;
42904;SDS011;28550;51.228;4.528;2023-09-19T13:22:35;3.03;;;1.60;;
42904;SDS011;28550;51.228;4.528;2023-09-19T13:28:06;2.70;;;1.38;;
42904;SDS011;28550;51.228;4.528;2023-09-19T13:30:31;4.35;;;1.40;;
42904;SDS011;28550;51.228;4.528;2023-09-19T13:33:06;4.97;;;1.52;;
42904;SDS011;28550;51.228;4.528;2023-09-19T13:35:38;5.30;;;1.80;;
42904;SDS011;28550;51.228;4.528;2023-09-19T13:38:05;3.65;;;1.50;;
42904;SDS011;28550;51.228;4.528;2023-09-19T13:40:34;7.43;;;2.15;;
42904;SDS011;28550;51.228;4.528;2023-09-19T13:43:03;6.00;;;1.80;;
42904;SDS011;28550;51.228;4.528;2023-09-19T13:45:31;3.10;;;1.70;;
42904;SDS011;28550;51.228;4.528;2023-09-19T13:47:57;12.90;;;1.92;;
42904;SDS011;28550;51.228;4.528;2023-09-19T13:50:26;7.40;;;1.88;;
42904;SDS011;28550;51.228;4.528;2023-09-19T13:52:54;7.50;;;2.25;;
42904;SDS011;28550;51.228;4.528;2023-09-19T13:55:20;7.40;;;2.05;;
42904;SDS011;28550;51.228;4.528;2023-09-19T13:57:48;3.70;;;2.17;;
42904;SDS011;28550;51.228;4.528;2023-09-19T14:00:21;4.35;;;1.83;;
42904;SDS011;28550;51.228;4.528;2023-09-19T14:02:48;3.10;;;1.52;;
42904;SDS011;28550;51.228;4.528;2023-09-19T14:05:15;7.47;;;1.52;;
42904;SDS011;28550;51.228;4.528;2023-09-19T14:07:45;4.75;;;1.58;;
42904;SDS011;28550;51.228;4.528;2023-09-19T14:10:11;5.45;;;2.15;;
42904;SDS011;28550;51.228;4.528;2023-09-19T14:12:37;8.27;;;2.25;;
42904;SDS011;28550;51.228;4.528;2023-09-19T14:15:05;6.88;;;1.40;;
42904;SDS011;28550;51.228;4.528;2023-09-19T14:17:33;5.13;;;1.67;;
42904;SDS011;28550;51.228;4.528;2023-09-19T14:20:02;7.45;;;2.00;;
42904;SDS011;28550;51.228;4.528;2023-09-19T14:22:27;2.50;;;1.30;;
42904;SDS011;28550;51.228;4.528;2023-09-19T14:24:53;6.13;;;1.70;;
42904;SDS011;28550;51.228;4.528;2023-09-19T14:27:19;6.53;;;1.73;;
42904;SDS011;28550;51.228;4.528;2023-09-19T14:29:48;4.15;;;1.35;;
42904;SDS011;28550;51.228;4.528;2023-09-19T14:32:15;6.18;;;1.77;;
42904;SDS011;28550;51.228;4.528;2023-09-19T14:34:41;4.80;;;1.67;;
42904;SDS011;28550;51.228;4.528;2023-09-19T14:37:08;4.60;;;1.70;;
42904;SDS011;28550;51.228;4.528;2023-09-19T14:39:33;4.18;;;1.73;;
42904;SDS011;28550;51.228;4.528;2023-09-19T14:41:59;5.13;;;1.75;;
42904;SDS011;28550;51.228;4.528;2023-09-19T14:44:25;6.93;;;2.13;;
42904;SDS011;28550;51.228;4.528;2023-09-19T14:46:53;4.43;;;1.60;;
42904;SDS011;28550;51.228;4.528;2023-09-19T14:49:19;4.55;;;1.80;;
42904;SDS011;28550;51.228;4.528;2023-09-19T14:51:45;5.30;;;1.88;;
42904;SDS011;28550;51.228;4.528;2023-09-19T14:54:12;6.90;;;1.90;;
42904;SDS011;28550;51.228;4.528;2023-09-19T14:56:38;5.03;;;1.90;;
42904;SDS011;28550;51.228;4.528;2023-09-19T14:59:03;8.23;;;2.33;;
42904;SDS011;28550;51.228;4.528;2023-09-19T15:01:29;7.05;;;2.65;;
42904;SDS011;28550;51.228;4.528;2023-09-19T15:03:55;7.32;;;2.20;;
42904;SDS011;28550;51.228;4.528;2023-09-19T15:06:21;4.60;;;2.28;;
42904;SDS011;28550;51.228;4.528;2023-09-19T15:08:47;4.35;;;2.10;;
42904;SDS011;28550;51.228;4.528;2023-09-19T15:11:17;4.82;;;1.98;;
42904;SDS011;28550;51.228;4.528;2023-09-19T15:13:43;6.93;;;2.05;;
42904;SDS011;28550;51.228;4.528;2023-09-19T15:16:10;8.13;;;2.17;;
42904;SDS011;28550;51.228;4.528;2023-09-19T15:18:38;5.30;;;1.90;;
42904;SDS011;28550;51.228;4.528;2023-09-19T15:21:06;7.18;;;2.13;;
42904;SDS011;28550;51.228;4.528;2023-09-19T15:23:34;11.23;;;2.50;;
42904;SDS011;28550;51.228;4.528;2023-09-19T15:26:00;6.82;;;2.42;;
42904;SDS011;28550;51.228;4.528;2023-09-19T15:28:29;6.55;;;2.22;;
42904;SDS011;28550;51.228;4.528;2023-09-19T15:30:58;7.05;;;2.50;;
42904;SDS011;28550;51.228;4.528;2023-09-19T15:33:32;5.18;;;1.88;;
42904;SDS011;28550;51.228;4.528;2023-09-19T15:36:09;7.63;;;2.22;;
42904;SDS011;28550;51.228;4.528;2023-09-19T15:41:39;11.43;;;2.55;;
42904;SDS011;28550;51.228;4.528;2023-09-19T15:44:18;7.65;;;2.47;;
42904;SDS011;28550;51.228;4.528;2023-09-19T15:46:44;2.55;;;1.95;;
42904;SDS011;28550;51.228;4.528;2023-09-19T15:49:10;8.73;;;3.03;;
42904;SDS011;28550;51.228;4.528;2023-09-19T15:51:36;10.68;;;3.30;;
42904;SDS011;28550;51.228;4.528;2023-09-19T15:54:12;3.45;;;1.92;;
42904;SDS011;28550;51.228;4.528;2023-09-19T15:56:39;7.40;;;2.40;;
42904;SDS011;28550;51.228;4.528;2023-09-19T15:59:13;10.85;;;2.63;;
42904;SDS011;28550;51.228;4.528;2023-09-19T16:01:40;3.97;;;2.35;;
42904;SDS011;28550;51.228;4.528;2023-09-19T16:04:07;7.95;;;2.15;;
42904;SDS011;28550;51.228;4.528;2023-09-19T16:06:34;5.85;;;2.38;;
42904;SDS011;28550;51.228;4.528;2023-09-19T16:09:01;6.22;;;2.17;;
42904;SDS011;28550;51.228;4.528;2023-09-19T16:11:31;7.60;;;2.85;;
42904;SDS011;28550;51.228;4.528;2023-09-19T16:13:58;10.50;;;2.53;;
42904;SDS011;28550;51.228;4.528;2023-09-19T16:16:26;9.93;;;3.08;;
42904;SDS011;28550;51.228;4.528;2023-09-19T16:18:55;8.05;;;2.13;;
42904;SDS011;28550;51.228;4.528;2023-09-19T16:21:26;5.93;;;2.13;;
42904;SDS011;28550;51.228;4.528;2023-09-19T16:23:53;4.00;;;1.95;;
42904;SDS011;28550;51.228;4.528;2023-09-19T16:26:20;10.10;;;2.45;;
42904;SDS011;28550;51.228;4.528;2023-09-19T16:28:47;9.25;;;2.80;;
42904;SDS011;28550;51.228;4.528;2023-09-19T16:31:15;8.60;;;2.60;;